createdAt,value
2023-04-17T00:01:25.016Z,44.34
2023-04-17T00:03:53.074Z,44.41
2023-04-17T00:06:19.900Z,44.50
2023-04-17T00:08:46.868Z,44.82
2023-04-17T00:11:13.518Z,45.06
2023-04-17T00:13:40.278Z,44.60
2023-04-17T00:16:08.357Z,45.01
2023-04-17T00:18:34.996Z,44.90
2023-04-17T00:21:01.759Z,44.98
2023-04-17T00:23:28.424Z,45.16
2023-04-17T00:25:55.229Z,45.21
2023-04-17T00:28:21.851Z,45.31
2023-04-17T00:30:48.503Z,45.49
2023-04-17T00:33:15.726Z,46.04
2023-04-17T00:35:42.348Z,45.65
2023-04-17T00:38:09.349Z,45.68
2023-04-17T00:40:36.278Z,45.67
2023-04-17T00:43:04.221Z,45.68
2023-04-17T00:45:31.304Z,45.81
2023-04-17T00:48:00.153Z,45.88
2023-04-17T00:50:30.962Z,46.00
2023-04-17T00:52:58.658Z,46.03
2023-04-17T00:55:26.826Z,45.92
2023-04-17T00:57:53.827Z,46.21
2023-04-17T01:00:20.561Z,46.08
2023-04-17T01:02:47.442Z,46.32
2023-04-17T01:05:14.437Z,46.10
2023-04-17T01:07:42.103Z,46.35
2023-04-17T01:10:09.393Z,46.18
2023-04-17T01:12:36.688Z,46.38
2023-04-17T01:15:03.899Z,46.10
2023-04-17T01:17:30.718Z,46.27
2023-04-17T01:19:57.836Z,46.35
2023-04-17T01:22:24.526Z,46.45
2023-04-17T01:24:51.143Z,46.90
2023-04-17T01:27:17.807Z,46.68
2023-04-17T01:29:44.850Z,46.64
2023-04-17T01:32:11.558Z,47.13
2023-04-17T01:34:38.296Z,46.94
2023-04-17T01:37:05.188Z,46.98
2023-04-17T01:39:31.875Z,46.72
2023-04-17T01:41:58.648Z,47.01
2023-04-17T01:44:25.556Z,47.13
2023-04-17T01:46:52.321Z,46.88
2023-04-17T01:49:19.075Z,47.31
2023-04-17T01:51:45.741Z,47.03
2023-04-17T01:54:12.366Z,47.33
2023-04-17T01:56:39.008Z,47.33
2023-04-17T01:59:05.764Z,47.32
2023-04-17T02:01:32.728Z,47.54
2023-04-17T02:03:59.697Z,47.67
2023-04-17T02:06:27.491Z,47.38
2023-04-17T02:08:54.262Z,47.69
2023-04-17T02:11:21.126Z,47.47
2023-04-17T02:13:47.763Z,47.44
2023-04-17T02:16:14.547Z,47.44
2023-04-17T02:18:41.425Z,47.65
2023-04-17T02:21:09.750Z,47.62
2023-04-17T02:23:36.637Z,47.78
2023-04-17T02:26:03.412Z,47.74
2023-04-17T02:28:30.125Z,47.60
2023-04-17T02:30:56.923Z,47.81
2023-04-17T02:33:23.714Z,47.53
2023-04-17T02:35:50.598Z,47.93
2023-04-17T02:38:17.483Z,47.93
2023-04-17T02:40:44.216Z,47.94
2023-04-17T02:43:13.249Z,47.84
2023-04-17T02:45:39.876Z,47.90
2023-04-17T02:48:06.788Z,47.99
2023-04-17T02:50:33.578Z,47.57
2023-04-17T02:53:00.194Z,47.64
2023-04-17T02:55:27.161Z,48.07
2023-04-17T02:57:53.789Z,48.09
2023-04-17T03:00:20.876Z,47.93
2023-04-17T03:02:48.060Z,48.08
2023-04-17T03:05:16.546Z,48.40
2023-04-17T03:07:43.254Z,48.02
2023-04-17T03:10:10.101Z,48.04
2023-04-17T03:12:36.920Z,48.32
2023-04-17T03:15:04.081Z,48.39
2023-04-17T03:17:30.875Z,48.31
2023-04-17T03:19:57.521Z,48.27
2023-04-17T03:22:24.137Z,48.53
2023-04-17T03:24:50.831Z,48.37
2023-04-17T03:27:17.466Z,48.67
2023-04-17T03:29:44.065Z,48.54
2023-04-17T03:32:10.865Z,48.90
2023-04-17T03:34:38.318Z,48.82
2023-04-17T03:37:04.925Z,48.84
2023-04-17T03:39:31.559Z,48.63
2023-04-17T03:41:58.257Z,48.97
2023-04-17T03:44:24.951Z,48.52
2023-04-17T03:46:51.585Z,48.58
2023-04-17T03:49:18.287Z,49.01
2023-04-17T03:51:45.023Z,49.00
2023-04-17T03:54:11.643Z,48.95
2023-04-17T03:56:38.260Z,48.79
2023-04-17T03:59:06.094Z,48.81
2023-04-17T04:01:32.910Z,49.17
2023-04-17T04:04:00.205Z,49.01
2023-04-17T04:06:29.915Z,49.32
2023-04-17T04:08:57.306Z,48.83
2023-04-17T04:11:23.922Z,48.98
2023-04-17T04:13:50.810Z,49.17
2023-04-17T04:16:17.491Z,48.99
2023-04-17T04:18:44.196Z,48.79
2023-04-17T04:21:12.222Z,48.81
2023-04-17T04:23:41.396Z,49.03
2023-04-17T04:26:08.210Z,49.10
2023-04-17T04:28:34.904Z,49.46
2023-04-17T04:31:02.876Z,49.15
2023-04-17T04:33:30.186Z,49.37
2023-04-17T04:36:01.092Z,49.36
2023-04-17T04:38:31.322Z,49.32
2023-04-17T04:41:01.735Z,49.55
2023-04-17T04:43:32.216Z,49.47
2023-04-17T04:45:59.065Z,49.33
2023-04-17T04:48:25.735Z,49.47
2023-04-17T04:50:52.572Z,49.42
2023-04-17T04:53:19.244Z,49.46
2023-04-17T04:55:45.945Z,49.66
2023-04-17T04:58:12.842Z,49.17
2023-04-17T05:00:39.909Z,49.28
2023-04-17T05:03:07.772Z,49.48
2023-04-17T05:05:35.930Z,49.20
2023-04-17T05:08:03.022Z,49.31
2023-04-17T05:10:29.868Z,49.16
2023-04-17T05:12:56.485Z,49.57
2023-04-17T05:15:23.263Z,49.37
2023-04-17T05:17:50.025Z,48.99
2023-04-17T05:20:17.048Z,49.20
2023-04-17T05:22:43.727Z,48.99
2023-04-17T05:25:10.494Z,48.81
2023-04-17T05:27:37.739Z,48.79
2023-04-17T05:30:05.420Z,49.02
2023-04-17T05:32:32.247Z,48.91
2023-04-17T05:34:58.946Z,48.55
2023-04-17T05:37:25.614Z,48.64
2023-04-17T05:39:52.924Z,48.76
2023-04-17T05:42:19.564Z,48.43
2023-04-17T05:44:46.218Z,48.41
2023-04-17T05:47:13.052Z,48.61
2023-04-17T05:49:39.703Z,48.15
2023-04-17T05:52:06.329Z,48.28
2023-04-17T05:54:32.993Z,47.82
2023-04-17T05:56:59.674Z,48.08
2023-04-17T05:59:27.368Z,47.75
2023-04-17T06:01:54.305Z,47.51
2023-04-17T06:04:21.203Z,47.56
2023-04-17T06:06:48.016Z,47.74
2023-04-17T06:09:15.117Z,47.27
2023-04-17T06:11:41.863Z,47.35
2023-04-17T06:14:08.513Z,47.34
2023-04-17T06:16:35.137Z,46.98
2023-04-17T06:19:01.951Z,47.21
2023-04-17T06:21:28.749Z,46.83
2023-04-17T06:23:55.360Z,46.71
2023-04-17T06:26:21.993Z,46.73
2023-04-17T06:28:48.650Z,46.72
2023-04-17T06:31:15.521Z,46.90
2023-04-17T06:33:42.160Z,46.98
2023-04-17T06:36:08.909Z,46.80
2023-04-17T06:38:35.547Z,46.45
2023-04-17T06:41:02.254Z,46.08
2023-04-17T06:43:28.910Z,45.83
2023-04-17T06:45:55.677Z,46.48
2023-04-17T06:48:22.397Z,45.95
2023-04-17T06:50:49.660Z,45.79
2023-04-17T06:53:16.357Z,45.56
2023-04-17T06:55:43.266Z,45.34
2023-04-17T06:58:09.911Z,45.79
2023-04-17T07:00:36.606Z,45.48
2023-04-17T07:03:03.336Z,45.55
2023-04-17T07:05:30.115Z,44.96
2023-04-17T07:07:56.756Z,45.37
2023-04-17T07:10:23.471Z,44.71
2023-04-17T07:12:50.122Z,44.78
2023-04-17T07:15:16.858Z,44.58
2023-04-17T07:17:43.545Z,44.65
2023-04-17T07:20:10.631Z,44.63
2023-04-17T07:22:37.674Z,44.41
2023-04-17T07:25:05.608Z,44.33
2023-04-17T07:27:32.273Z,44.18
2023-04-17T07:29:58.926Z,44.15
2023-04-17T07:32:25.625Z,44.10
2023-04-17T07:34:53.023Z,43.92
2023-04-17T07:37:19.738Z,43.93
2023-04-17T07:39:50.110Z,43.64
2023-04-17T07:42:16.785Z,43.54
2023-04-17T07:44:43.524Z,43.33
2023-04-17T07:47:10.244Z,43.16
2023-04-17T07:49:36.921Z,43.17
2023-04-17T07:52:03.622Z,43.35
2023-04-17T07:54:31.551Z,42.92
2023-04-17T07:57:02.751Z,43.04
2023-04-17T07:59:30.732Z,42.98
2023-04-17T08:01:57.778Z,42.93
2023-04-17T08:04:25.581Z,42.31
2023-04-17T08:06:52.586Z,42.59
2023-04-17T08:09:21.260Z,42.34
2023-04-17T08:11:57.007Z,42.19
2023-04-17T08:14:25.076Z,42.22
2023-04-17T08:16:52.042Z,43.10
2023-04-17T08:19:18.862Z,43.11
2023-04-17T08:21:48.071Z,43.00
2023-04-17T08:24:15.896Z,42.86
2023-04-17T08:26:43.969Z,42.86
2023-04-17T08:29:11.063Z,42.52
2023-04-17T08:31:39.863Z,42.52
2023-04-17T08:34:14.303Z,42.41
2023-04-17T08:36:42.823Z,42.16
2023-04-17T08:39:12.603Z,41.88
2023-04-17T08:41:52.213Z,41.18
2023-04-17T08:44:21.633Z,40.84
2023-04-17T08:46:49.648Z,40.36
2023-04-17T08:49:16.545Z,39.41
2023-04-17T08:51:43.226Z,38.89
2023-04-17T08:54:09.992Z,38.00
2023-04-17T08:56:36.664Z,37.22
2023-04-17T08:59:04.527Z,37.02
2023-04-17T09:01:31.303Z,36.44
2023-04-17T09:03:58.281Z,36.71
2023-04-17T09:06:25.128Z,36.18
2023-04-17T09:09:00.516Z,36.38
2023-04-17T09:11:28.083Z,36.03
2023-04-17T09:13:54.741Z,35.41
2023-04-17T09:16:22.003Z,34.95
2023-04-17T09:18:49.700Z,34.62
2023-04-17T09:21:21.206Z,33.95
2023-04-17T09:23:56.573Z,33.70
2023-04-17T09:26:27.641Z,32.99
2023-04-17T09:29:03.975Z,32.83
2023-04-17T09:31:34.325Z,32.72
2023-04-17T09:34:02.749Z,32.68
2023-04-17T09:36:31.565Z,32.45
2023-04-17T09:39:00.913Z,32.24
2023-04-17T09:41:29.794Z,32.07
2023-04-17T09:44:01.949Z,32.40
2023-04-17T09:46:33.421Z,32.11
2023-04-17T09:49:08.713Z,32.40
2023-04-17T09:51:35.961Z,32.66
2023-04-17T09:54:06.972Z,32.75
2023-04-17T09:56:35.333Z,32.40
2023-04-17T09:59:06.300Z,32.57
2023-04-17T10:01:34.708Z,32.65
2023-04-17T10:04:03.273Z,32.69
2023-04-17T10:06:35.370Z,32.82
2023-04-17T10:09:04.375Z,32.56
2023-04-17T10:11:36.348Z,32.47
2023-04-17T10:14:24.465Z,32.38
2023-04-17T10:16:51.495Z,32.24
2023-04-17T10:19:32.730Z,31.96
2023-04-17T10:22:20.728Z,31.97
2023-04-17T10:24:52.228Z,31.75
2023-04-17T10:27:24.864Z,31.37
2023-04-17T10:29:59.013Z,31.67
2023-04-17T10:32:29.895Z,31.71
2023-04-17T10:35:01.394Z,31.69
2023-04-17T10:37:50.347Z,31.64
2023-04-17T10:40:22.585Z,31.81
2023-04-17T10:43:02.551Z,31.70
2023-04-17T10:45:51.232Z,31.50
2023-04-17T10:48:26.601Z,31.34
2023-04-17T10:50:53.491Z,31.32
2023-04-17T10:53:40.472Z,30.77
2023-04-17T10:56:08.193Z,31.02
2023-04-17T10:58:38.200Z,31.13
2023-04-17T11:01:10.635Z,30.98
2023-04-17T11:03:38.997Z,30.68
2023-04-17T11:06:07.344Z,31.06
2023-04-17T11:08:34.199Z,31.13
2023-04-17T11:11:00.834Z,30.96
2023-04-17T11:13:32.431Z,30.71
2023-04-17T11:15:59.474Z,30.74
2023-04-17T11:18:26.675Z,30.64
2023-04-17T11:20:53.374Z,30.52
2023-04-17T11:23:20.995Z,30.59
2023-04-17T11:25:47.622Z,30.22
2023-04-17T11:28:14.361Z,29.87
2023-04-17T11:30:44.454Z,30.13
2023-04-17T11:33:16.115Z,29.78
2023-04-17T11:35:43.648Z,29.87
2023-04-17T11:38:13.102Z,29.86
2023-04-17T11:40:59.097Z,30.16
2023-04-17T11:43:27.813Z,30.06
2023-04-17T11:45:59.238Z,29.55
2023-04-17T11:48:30.366Z,29.80
2023-04-17T11:51:01.266Z,29.76
2023-04-17T11:53:28.174Z,29.66
2023-04-17T11:56:14.419Z,29.43
2023-04-17T11:58:54.145Z,29.32
2023-04-17T12:01:24.975Z,29.52
2023-04-17T12:03:52.740Z,29.61
2023-04-17T12:06:19.575Z,29.39
2023-04-17T12:08:50.565Z,29.33
2023-04-17T12:11:23.765Z,28.40
2023-04-17T12:13:51.319Z,28.77
2023-04-17T12:16:18.073Z,28.83
2023-04-17T12:18:45.987Z,29.20
2023-04-17T12:21:13.692Z,28.89
2023-04-17T12:23:41.483Z,28.77
2023-04-17T12:26:08.743Z,29.01
2023-04-17T12:28:35.957Z,28.90
2023-04-17T12:31:04.152Z,28.70
2023-04-17T12:33:31.830Z,28.78
2023-04-17T12:36:00.110Z,28.79
2023-04-17T12:38:27.086Z,28.60
2023-04-17T12:40:53.742Z,28.44
2023-04-17T12:43:20.363Z,28.57
2023-04-17T12:45:47.050Z,28.40
2023-04-17T12:48:15.001Z,28.52
2023-04-17T12:50:45.255Z,28.27
2023-04-17T12:53:13.743Z,28.43
2023-04-17T12:55:41.700Z,28.37
2023-04-17T12:58:11.170Z,28.21
2023-04-17T13:00:39.129Z,28.06
2023-04-17T13:03:06.346Z,27.90
2023-04-17T13:05:33.164Z,27.60
2023-04-17T13:07:59.851Z,27.92
2023-04-17T13:10:26.626Z,27.41
2023-04-17T13:12:53.314Z,28.02
2023-04-17T13:15:19.985Z,27.61
2023-04-17T13:17:46.862Z,27.39
2023-04-17T13:20:13.777Z,27.34
2023-04-17T13:22:40.438Z,27.28
2023-04-17T13:25:07.474Z,27.12
2023-04-17T13:27:34.158Z,27.24
2023-04-17T13:30:00.905Z,27.00
2023-04-17T13:32:27.567Z,27.15
2023-04-17T13:34:54.622Z,27.08
2023-04-17T13:37:22.091Z,27.17
2023-04-17T13:39:48.781Z,27.26
2023-04-17T13:42:16.872Z,27.13
2023-04-17T13:44:43.570Z,27.02
2023-04-17T13:47:10.295Z,27.07
2023-04-17T13:49:37.043Z,27.15
2023-04-17T13:52:03.830Z,27.15
2023-04-17T13:54:30.583Z,27.01
2023-04-17T13:56:58.244Z,27.28
2023-04-17T13:59:25.260Z,27.46
2023-04-17T14:01:52.056Z,27.28
2023-04-17T14:04:18.982Z,27.44
2023-04-17T14:06:49.548Z,27.45
2023-04-17T14:09:17.351Z,27.32
2023-04-17T14:11:43.950Z,27.50
2023-04-17T14:14:12.758Z,27.52
2023-04-17T14:16:43.289Z,27.58
2023-04-17T14:19:13.833Z,27.43
2023-04-17T14:21:41.965Z,27.49
2023-04-17T14:24:09.070Z,27.60
2023-04-17T14:26:37.455Z,27.46
2023-04-17T14:29:04.658Z,27.56
2023-04-17T14:31:31.869Z,27.10
2023-04-17T14:33:58.738Z,27.29
2023-04-17T14:36:26.057Z,27.07
2023-04-17T14:38:54.290Z,27.25
2023-04-17T14:41:21.166Z,27.02
2023-04-17T14:43:47.832Z,26.83
2023-04-17T14:46:14.579Z,26.65
2023-04-17T14:48:54.146Z,26.70
2023-04-17T14:51:23.742Z,26.56
2023-04-17T14:53:53.178Z,26.54
2023-04-17T14:56:21.631Z,26.33
2023-04-17T14:58:48.735Z,26.20
2023-04-17T15:01:15.686Z,26.32
2023-04-17T15:03:46.713Z,26.23
2023-04-17T15:06:14.884Z,26.37
2023-04-17T15:08:41.733Z,26.46
2023-04-17T15:11:08.806Z,26.62
2023-04-17T15:13:36.020Z,26.20
2023-04-17T15:16:03.520Z,26.30
2023-04-17T15:18:30.839Z,26.43
2023-04-17T15:20:57.721Z,26.45
2023-04-17T15:23:26.518Z,26.21
2023-04-17T15:25:57.513Z,26.23
2023-04-17T15:28:24.979Z,26.39
2023-04-17T15:30:51.601Z,26.45
2023-04-17T15:33:18.385Z,26.44
2023-04-17T15:35:45.062Z,26.72
2023-04-17T15:38:12.113Z,26.58
2023-04-17T15:40:38.902Z,26.69
2023-04-17T15:43:05.582Z,26.58
2023-04-17T15:45:32.243Z,26.65
2023-04-17T15:48:00.967Z,26.61
2023-04-17T15:50:27.686Z,26.74
2023-04-17T15:52:54.286Z,26.70
2023-04-17T15:55:20.976Z,26.42
2023-04-17T15:57:47.648Z,26.53
2023-04-17T16:00:14.780Z,26.54
2023-04-17T16:02:41.571Z,26.56
2023-04-17T16:05:08.697Z,26.66
2023-04-17T16:07:35.352Z,26.40
2023-04-17T16:10:02.203Z,26.55
2023-04-17T16:12:28.909Z,26.67
2023-04-17T16:14:55.533Z,26.73
2023-04-17T16:17:22.207Z,26.69
2023-04-17T16:19:50.614Z,26.82
2023-04-17T16:22:18.509Z,26.85
2023-04-17T16:24:45.204Z,26.85
2023-04-17T16:27:11.872Z,26.75
2023-04-17T16:29:38.530Z,26.76
2023-04-17T16:32:05.344Z,26.76
2023-04-17T16:34:31.951Z,26.72
2023-04-17T16:36:58.552Z,26.71
2023-04-17T16:39:25.697Z,26.89
2023-04-17T16:41:52.914Z,26.60
2023-04-17T16:44:19.926Z,26.50
2023-04-17T16:47:09.578Z,26.84
2023-04-17T16:49:33.255Z,26.96
2023-04-17T16:51:59.865Z,27.02
2023-04-17T16:54:26.532Z,27.09
2023-04-17T16:56:53.203Z,27.06
2023-04-17T16:59:19.934Z,26.91
2023-04-17T17:01:49.928Z,26.94
2023-04-17T17:04:16.935Z,26.90
2023-04-17T17:06:43.612Z,26.92
2023-04-17T17:09:10.449Z,27.20
2023-04-17T17:11:37.241Z,27.19
2023-04-17T17:14:03.873Z,27.19
2023-04-17T17:16:30.560Z,27.54
2023-04-17T17:18:57.225Z,27.42
2023-04-17T17:21:23.835Z,27.83
2023-04-17T17:23:50.504Z,27.55
2023-04-17T17:26:17.771Z,27.71
2023-04-17T17:28:50.799Z,27.78
2023-04-17T17:31:17.641Z,27.85
2023-04-17T17:33:44.913Z,28.00
2023-04-17T17:36:12.053Z,28.23
2023-04-17T17:38:39.026Z,28.39
2023-04-17T17:41:05.793Z,28.95
2023-04-17T17:43:32.405Z,28.98
2023-04-17T17:45:59.118Z,29.30
2023-04-17T17:48:25.889Z,29.28
2023-04-17T17:50:57.403Z,29.63
2023-04-17T17:53:26.353Z,29.66
2023-04-17T17:55:54.983Z,29.89
2023-04-17T17:58:22.048Z,29.99
2023-04-17T18:00:51.741Z,30.14
2023-04-17T18:03:19.205Z,30.33
2023-04-17T18:05:46.872Z,30.40
2023-04-17T18:08:14.799Z,30.54
2023-04-17T18:10:41.447Z,30.67
2023-04-17T18:13:08.330Z,30.82
2023-04-17T18:15:36.183Z,31.16
2023-04-17T18:18:02.990Z,31.30
2023-04-17T18:20:29.834Z,31.74
2023-04-17T18:22:56.516Z,31.89
2023-04-17T18:25:23.422Z,32.21
2023-04-17T18:27:50.162Z,32.30
2023-04-17T18:30:16.852Z,32.69
2023-04-17T18:32:43.560Z,32.82
2023-04-17T18:35:10.309Z,33.30
2023-04-17T18:37:37.674Z,33.41
2023-04-17T18:40:07.230Z,33.56
2023-04-17T18:42:34.030Z,33.69
2023-04-17T18:45:00.990Z,34.17
2023-04-17T18:47:28.015Z,34.39
2023-04-17T18:49:54.835Z,34.63
2023-04-17T18:52:21.579Z,34.54
2023-04-17T18:54:48.320Z,35.01
2023-04-17T18:57:15.047Z,35.08
2023-04-17T18:59:43.243Z,35.49
2023-04-17T19:02:10.210Z,35.38
2023-04-17T19:04:36.907Z,35.69
2023-04-17T19:07:03.677Z,36.34
2023-04-17T19:09:30.402Z,36.42
2023-04-17T19:11:58.569Z,36.13
2023-04-17T19:14:25.590Z,36.75
2023-04-17T19:16:53.421Z,36.63
2023-04-17T19:19:20.203Z,36.76
2023-04-17T19:21:47.626Z,37.48
2023-04-17T19:24:14.290Z,37.23
2023-04-17T19:26:41.280Z,37.78
2023-04-17T19:29:07.967Z,37.79
2023-04-17T19:31:34.726Z,37.90
2023-04-17T19:34:01.679Z,38.08
2023-04-17T19:36:28.450Z,38.02
2023-04-17T19:38:59.129Z,38.51
2023-04-17T19:41:26.446Z,38.32
2023-04-17T19:43:54.233Z,38.57
2023-04-17T19:46:22.888Z,38.80
2023-04-17T19:48:50.932Z,38.29
2023-04-17T19:51:17.679Z,39.25
2023-04-17T19:53:44.953Z,38.99
2023-04-17T19:56:11.639Z,39.32
2023-04-17T19:58:38.782Z,39.54
2023-04-17T20:01:05.704Z,39.73
2023-04-17T20:03:33.159Z,39.70
2023-04-17T20:06:03.513Z,39.75
2023-04-17T20:08:30.503Z,40.10
2023-04-17T20:10:57.117Z,39.97
2023-04-17T20:13:23.865Z,39.72
2023-04-17T20:15:50.513Z,40.65
2023-04-17T20:18:17.755Z,40.48
2023-04-17T20:20:44.450Z,40.10
2023-04-17T20:23:11.134Z,40.74
2023-04-17T20:25:37.819Z,40.25
2023-04-17T20:28:04.818Z,40.45
2023-04-17T20:30:31.526Z,40.78
2023-04-17T20:32:58.414Z,40.89
2023-04-17T20:35:25.186Z,40.39
2023-04-17T20:37:52.439Z,41.30
2023-04-17T20:40:19.401Z,41.39
2023-04-17T20:42:47.125Z,41.38
2023-04-17T20:45:14.735Z,41.49
2023-04-17T20:47:55.905Z,41.68
2023-04-17T20:50:23.884Z,41.65
2023-04-17T20:52:50.763Z,41.57
2023-04-17T20:55:19.802Z,41.92
2023-04-17T20:57:47.107Z,41.93
2023-04-17T21:00:14.299Z,42.06
2023-04-17T21:02:41.193Z,42.25
2023-04-17T21:05:09.136Z,42.41
2023-04-17T21:07:36.656Z,42.21
2023-04-17T21:10:03.824Z,42.74
2023-04-17T21:12:32.901Z,42.43
2023-04-17T21:14:59.780Z,42.50
2023-04-17T21:17:26.465Z,42.84
2023-04-17T21:19:55.780Z,42.61
2023-04-17T21:22:22.385Z,42.87
2023-04-17T21:24:49.011Z,42.99
2023-04-17T21:27:15.636Z,43.14
2023-04-17T21:29:42.335Z,42.89
2023-04-17T21:32:09.051Z,43.26
2023-04-17T21:34:35.793Z,43.36
2023-04-17T21:37:03.653Z,43.42
2023-04-17T21:39:32.906Z,43.33
2023-04-17T21:42:00.048Z,43.38
2023-04-17T21:44:26.701Z,43.33
2023-04-17T21:46:53.386Z,43.52
2023-04-17T21:49:21.024Z,43.76
2023-04-17T21:51:47.693Z,43.55
2023-04-17T21:54:14.622Z,44.05
2023-04-17T21:56:41.716Z,43.96
2023-04-17T21:59:08.324Z,44.03
2023-04-17T22:01:35.109Z,44.17
2023-04-17T22:04:01.930Z,44.15
2023-04-17T22:06:28.575Z,44.14
2023-04-17T22:08:55.344Z,44.18
2023-04-17T22:11:23.084Z,44.16
2023-04-17T22:13:49.908Z,44.57
2023-04-17T22:16:16.603Z,44.41
2023-04-17T22:18:43.266Z,44.75
2023-04-17T22:21:09.882Z,45.09
2023-04-17T22:23:36.484Z,45.35
2023-04-17T22:26:03.319Z,45.09
2023-04-17T22:28:31.185Z,45.08
2023-04-17T22:30:59.304Z,45.06
2023-04-17T22:33:26.333Z,45.40
2023-04-17T22:35:53.399Z,45.70
2023-04-17T22:38:21.212Z,45.35
2023-04-17T22:40:48.493Z,45.44
2023-04-17T22:43:15.444Z,45.34
2023-04-17T22:45:42.447Z,45.30
2023-04-17T22:48:09.160Z,45.41
2023-04-17T22:50:37.852Z,45.58
2023-04-17T22:53:04.586Z,45.50
2023-04-17T22:55:31.314Z,45.53
2023-04-17T22:57:57.976Z,45.87
2023-04-17T23:00:25.427Z,45.32
2023-04-17T23:02:52.516Z,45.28
2023-04-17T23:05:19.455Z,45.67
2023-04-17T23:07:46.244Z,45.79
2023-04-17T23:10:12.876Z,46.01
2023-04-17T23:12:39.470Z,45.81
2023-04-17T23:15:08.275Z,46.43
2023-04-17T23:17:35.013Z,46.18
2023-04-17T23:20:01.644Z,45.96
2023-04-17T23:22:28.289Z,45.90
2023-04-17T23:24:54.949Z,46.53
2023-04-17T23:27:21.552Z,46.50
2023-04-17T23:29:48.188Z,46.37
2023-04-17T23:32:15.193Z,46.41
2023-04-17T23:34:41.973Z,46.84
2023-04-17T23:37:09.308Z,46.23
2023-04-17T23:39:35.978Z,46.56
2023-04-17T23:42:07.219Z,46.37
2023-04-17T23:44:34.722Z,46.85
2023-04-17T23:47:02.073Z,46.43
2023-04-17T23:49:28.795Z,47.04
2023-04-17T23:51:55.534Z,46.98
2023-04-17T23:54:22.209Z,46.92
2023-04-17T23:56:48.910Z,46.73
2023-04-17T23:59:15.601Z,46.80
